sensor_id;sensor_type;location;lat;lon;timestamp;P1;durP1;ratioP1;P2;durP2;ratioP2
22697;SDS011;11516;51.612;7.510;2023-04-24T00:00:53;1.55;;;0.50;;
22697;SDS011;11516;51.612;7.510;2023-04-24T00:03:21;1.60;;;0.40;;
22697;SDS011;11516;51.612;7.510;2023-04-24T00:05:47;0.50;;;0.50;;
22697;SDS011;11516;51.612;7.510;2023-04-24T00:08:13;2.03;;;0.70;;
22697;SDS011;11516;51.612;7.510;2023-04-24T00:10:38;0.65;;;0.50;;
22697;SDS011;11516;51.612;7.510;2023-04-24T00:13:04;1.17;;;0.73;;
22697;SDS011;11516;51.612;7.510;2023-04-24T00:15:29;1.75;;;1.02;;
22697;SDS011;11516;51.612;7.510;2023-04-24T00:17:56;1.42;;;0.93;;
22697;SDS011;11516;51.612;7.510;2023-04-24T00:20:21;1.40;;;1.10;;
22697;SDS011;11516;51.612;7.510;2023-04-24T00:22:47;1.08;;;0.80;;
22697;SDS011;11516;51.612;7.510;2023-04-24T00:25:13;0.70;;;0.70;;
22697;SDS011;11516;51.612;7.510;2023-04-24T00:27:38;1.03;;;0.63;;
22697;SDS011;11516;51.612;7.510;2023-04-24T00:30:04;1.25;;;0.75;;
22697;SDS011;11516;51.612;7.510;2023-04-24T00:32:30;2.72;;;1.52;;
22697;SDS011;11516;51.612;7.510;2023-04-24T00:34:55;1.40;;;1.10;;
22697;SDS011;11516;51.612;7.510;2023-04-24T00:37:21;2.40;;;1.47;;
22697;SDS011;11516;51.612;7.510;2023-04-24T00:39:46;2.85;;;1.60;;
22697;SDS011;11516;51.612;7.510;2023-04-24T00:42:12;2.95;;;1.70;;
22697;SDS011;11516;51.612;7.510;2023-04-24T00:44:37;1.30;;;1.20;;
22697;SDS011;11516;51.612;7.510;2023-04-24T00:47:03;0.90;;;0.90;;
22697;SDS011;11516;51.612;7.510;2023-04-24T00:49:29;1.40;;;1.10;;
22697;SDS011;11516;51.612;7.510;2023-04-24T00:51:55;2.43;;;1.43;;
22697;SDS011;11516;51.612;7.510;2023-04-24T00:54:21;2.13;;;1.00;;
22697;SDS011;11516;51.612;7.510;2023-04-24T00:56:47;3.20;;;1.53;;
22697;SDS011;11516;51.612;7.510;2023-04-24T00:59:13;1.83;;;1.20;;
22697;SDS011;11516;51.612;7.510;2023-04-24T01:01:41;2.13;;;1.10;;
22697;SDS011;11516;51.612;7.510;2023-04-24T01:04:07;2.60;;;1.23;;
22697;SDS011;11516;51.612;7.510;2023-04-24T01:06:34;2.38;;;1.40;;
22697;SDS011;11516;51.612;7.510;2023-04-24T01:09:01;1.38;;;1.10;;
22697;SDS011;11516;51.612;7.510;2023-04-24T01:11:27;3.50;;;1.48;;
22697;SDS011;11516;51.612;7.510;2023-04-24T01:13:54;1.23;;;1.13;;
22697;SDS011;11516;51.612;7.510;2023-04-24T01:16:21;1.77;;;1.50;;
22697;SDS011;11516;51.612;7.510;2023-04-24T01:18:47;2.00;;;1.23;;
22697;SDS011;11516;51.612;7.510;2023-04-24T01:21:14;1.40;;;1.20;;
22697;SDS011;11516;51.612;7.510;2023-04-24T01:23:43;1.40;;;1.20;;
22697;SDS011;11516;51.612;7.510;2023-04-24T01:26:10;2.63;;;1.50;;
22697;SDS011;11516;51.612;7.510;2023-04-24T01:28:36;1.40;;;1.30;;
22697;SDS011;11516;51.612;7.510;2023-04-24T01:31:02;1.92;;;1.50;;
22697;SDS011;11516;51.612;7.510;2023-04-24T01:33:28;2.00;;;1.40;;
22697;SDS011;11516;51.612;7.510;2023-04-24T01:35:54;1.85;;;1.40;;
22697;SDS011;11516;51.612;7.510;2023-04-24T01:38:19;2.43;;;1.50;;
22697;SDS011;11516;51.612;7.510;2023-04-24T01:40:45;1.73;;;1.50;;
22697;SDS011;11516;51.612;7.510;2023-04-24T01:43:11;1.60;;;1.50;;
22697;SDS011;11516;51.612;7.510;2023-04-24T01:45:37;2.15;;;1.65;;
22697;SDS011;11516;51.612;7.510;2023-04-24T01:48:03;1.85;;;1.40;;
22697;SDS011;11516;51.612;7.510;2023-04-24T01:50:28;2.13;;;1.60;;
22697;SDS011;11516;51.612;7.510;2023-04-24T01:52:54;3.60;;;1.63;;
22697;SDS011;11516;51.612;7.510;2023-04-24T01:55:20;1.85;;;1.73;;
22697;SDS011;11516;51.612;7.510;2023-04-24T01:57:45;1.73;;;1.60;;
22697;SDS011;11516;51.612;7.510;2023-04-24T02:00:11;1.50;;;1.40;;
22697;SDS011;11516;51.612;7.510;2023-04-24T02:02:39;2.23;;;1.50;;
22697;SDS011;11516;51.612;7.510;2023-04-24T02:05:06;1.75;;;1.65;;
22697;SDS011;11516;51.612;7.510;2023-04-24T02:07:32;1.80;;;1.70;;
22697;SDS011;11516;51.612;7.510;2023-04-24T02:09:57;2.10;;;1.87;;
22697;SDS011;11516;51.612;7.510;2023-04-24T02:12:23;1.90;;;1.80;;
22697;SDS011;11516;51.612;7.510;2023-04-24T02:14:49;2.50;;;2.30;;
22697;SDS011;11516;51.612;7.510;2023-04-24T02:17:15;2.30;;;1.90;;
22697;SDS011;11516;51.612;7.510;2023-04-24T02:19:41;2.78;;;2.10;;
22697;SDS011;11516;51.612;7.510;2023-04-24T02:22:06;2.40;;;2.20;;
22697;SDS011;11516;51.612;7.510;2023-04-24T02:24:32;2.87;;;2.63;;
22697;SDS011;11516;51.612;7.510;2023-04-24T02:26:57;3.40;;;2.50;;
22697;SDS011;11516;51.612;7.510;2023-04-24T02:29:23;3.50;;;2.30;;
22697;SDS011;11516;51.612;7.510;2023-04-24T02:31:48;4.35;;;2.60;;
22697;SDS011;11516;51.612;7.510;2023-04-24T02:34:14;2.63;;;2.42;;
22697;SDS011;11516;51.612;7.510;2023-04-24T02:36:40;4.03;;;2.60;;
22697;SDS011;11516;51.612;7.510;2023-04-24T02:39:05;2.87;;;2.47;;
22697;SDS011;11516;51.612;7.510;2023-04-24T02:41:31;3.20;;;2.45;;
22697;SDS011;11516;51.612;7.510;2023-04-24T02:44:00;3.72;;;2.45;;
22697;SDS011;11516;51.612;7.510;2023-04-24T02:46:26;3.67;;;2.60;;
22697;SDS011;11516;51.612;7.510;2023-04-24T02:48:51;3.80;;;2.90;;
22697;SDS011;11516;51.612;7.510;2023-04-24T02:51:17;3.92;;;3.30;;
22697;SDS011;11516;51.612;7.510;2023-04-24T02:53:43;4.75;;;4.00;;
22697;SDS011;11516;51.612;7.510;2023-04-24T02:56:08;4.57;;;4.07;;
22697;SDS011;11516;51.612;7.510;2023-04-24T02:58:37;6.53;;;4.85;;
22697;SDS011;11516;51.612;7.510;2023-04-24T03:01:02;5.50;;;4.43;;
22697;SDS011;11516;51.612;7.510;2023-04-24T03:03:28;6.72;;;4.97;;
22697;SDS011;11516;51.612;7.510;2023-04-24T03:05:53;7.60;;;5.30;;
22697;SDS011;11516;51.612;7.510;2023-04-24T03:08:20;7.90;;;5.97;;
22697;SDS011;11516;51.612;7.510;2023-04-24T03:10:46;6.50;;;5.63;;
22697;SDS011;11516;51.612;7.510;2023-04-24T03:13:11;8.20;;;5.88;;
22697;SDS011;11516;51.612;7.510;2023-04-24T03:15:37;10.93;;;5.90;;
22697;SDS011;11516;51.612;7.510;2023-04-24T03:18:02;7.17;;;6.07;;
22697;SDS011;11516;51.612;7.510;2023-04-24T03:20:28;8.27;;;6.30;;
22697;SDS011;11516;51.612;7.510;2023-04-24T03:22:54;7.85;;;6.00;;
22697;SDS011;11516;51.612;7.510;2023-04-24T03:25:19;8.70;;;6.50;;
22697;SDS011;11516;51.612;7.510;2023-04-24T03:27:45;9.03;;;6.90;;
22697;SDS011;11516;51.612;7.510;2023-04-24T03:30:11;10.80;;;6.90;;
22697;SDS011;11516;51.612;7.510;2023-04-24T03:32:36;10.88;;;7.55;;
22697;SDS011;11516;51.612;7.510;2023-04-24T03:35:04;11.02;;;7.53;;
22697;SDS011;11516;51.612;7.510;2023-04-24T03:37:31;9.45;;;7.25;;
22697;SDS011;11516;51.612;7.510;2023-04-24T03:39:56;7.77;;;6.87;;
22697;SDS011;11516;51.612;7.510;2023-04-24T03:42:22;9.03;;;7.50;;
22697;SDS011;11516;51.612;7.510;2023-04-24T03:44:47;10.93;;;8.33;;
22697;SDS011;11516;51.612;7.510;2023-04-24T03:47:13;9.43;;;7.80;;
22697;SDS011;11516;51.612;7.510;2023-04-24T03:49:38;9.73;;;7.65;;
22697;SDS011;11516;51.612;7.510;2023-04-24T03:52:04;12.17;;;8.17;;
22697;SDS011;11516;51.612;7.510;2023-04-24T03:54:29;10.60;;;7.70;;
22697;SDS011;11516;51.612;7.510;2023-04-24T03:56:55;10.83;;;7.60;;
22697;SDS011;11516;51.612;7.510;2023-04-24T03:59:21;8.27;;;7.32;;
22697;SDS011;11516;51.612;7.510;2023-04-24T04:01:46;10.25;;;8.35;;
22697;SDS011;11516;51.612;7.510;2023-04-24T04:04:12;9.73;;;7.87;;
22697;SDS011;11516;51.612;7.510;2023-04-24T04:06:37;13.03;;;8.50;;
22697;SDS011;11516;51.612;7.510;2023-04-24T04:09:03;11.00;;;8.53;;
22697;SDS011;11516;51.612;7.510;2023-04-24T04:11:29;10.20;;;7.72;;
22697;SDS011;11516;51.612;7.510;2023-04-24T04:13:55;11.75;;;9.13;;
22697;SDS011;11516;51.612;7.510;2023-04-24T04:16:21;12.43;;;8.68;;
22697;SDS011;11516;51.612;7.510;2023-04-24T04:18:47;12.33;;;9.77;;
22697;SDS011;11516;51.612;7.510;2023-04-24T04:21:13;13.63;;;9.40;;
22697;SDS011;11516;51.612;7.510;2023-04-24T04:23:38;12.82;;;9.32;;
22697;SDS011;11516;51.612;7.510;2023-04-24T04:26:05;13.88;;;9.75;;
22697;SDS011;11516;51.612;7.510;2023-04-24T04:28:31;12.45;;;9.77;;
22697;SDS011;11516;51.612;7.510;2023-04-24T04:30:57;11.20;;;9.40;;
22697;SDS011;11516;51.612;7.510;2023-04-24T04:33:23;11.82;;;9.85;;
22697;SDS011;11516;51.612;7.510;2023-04-24T04:35:50;13.30;;;9.48;;
22697;SDS011;11516;51.612;7.510;2023-04-24T04:38:17;13.65;;;9.50;;
22697;SDS011;11516;51.612;7.510;2023-04-24T04:40:44;12.35;;;9.07;;
22697;SDS011;11516;51.612;7.510;2023-04-24T04:43:09;13.70;;;9.68;;
22697;SDS011;11516;51.612;7.510;2023-04-24T04:45:36;13.40;;;9.48;;
22697;SDS011;11516;51.612;7.510;2023-04-24T04:48:03;12.73;;;10.10;;
22697;SDS011;11516;51.612;7.510;2023-04-24T04:50:29;11.65;;;9.23;;
22697;SDS011;11516;51.612;7.510;2023-04-24T04:52:55;10.97;;;9.33;;
22697;SDS011;11516;51.612;7.510;2023-04-24T04:55:20;11.23;;;9.27;;
22697;SDS011;11516;51.612;7.510;2023-04-24T04:57:46;13.90;;;10.63;;
22697;SDS011;11516;51.612;7.510;2023-04-24T05:00:11;12.13;;;10.33;;
22697;SDS011;11516;51.612;7.510;2023-04-24T05:02:38;13.23;;;11.00;;
22697;SDS011;11516;51.612;7.510;2023-04-24T05:05:04;14.02;;;10.30;;
22697;SDS011;11516;51.612;7.510;2023-04-24T05:07:31;15.73;;;10.57;;
22697;SDS011;11516;51.612;7.510;2023-04-24T05:09:56;15.00;;;10.70;;
22697;SDS011;11516;51.612;7.510;2023-04-24T05:12:22;13.88;;;11.30;;
22697;SDS011;11516;51.612;7.510;2023-04-24T05:14:48;15.77;;;10.70;;
22697;SDS011;11516;51.612;7.510;2023-04-24T05:17:13;13.47;;;10.43;;
22697;SDS011;11516;51.612;7.510;2023-04-24T05:19:39;13.40;;;10.00;;
22697;SDS011;11516;51.612;7.510;2023-04-24T05:22:04;12.10;;;10.02;;
22697;SDS011;11516;51.612;7.510;2023-04-24T05:24:32;12.83;;;10.50;;
22697;SDS011;11516;51.612;7.510;2023-04-24T05:26:58;13.43;;;10.05;;
22697;SDS011;11516;51.612;7.510;2023-04-24T05:29:24;12.65;;;9.68;;
22697;SDS011;11516;51.612;7.510;2023-04-24T05:31:51;13.77;;;9.70;;
22697;SDS011;11516;51.612;7.510;2023-04-24T05:34:17;12.38;;;10.07;;
22697;SDS011;11516;51.612;7.510;2023-04-24T05:36:43;13.02;;;9.30;;
22697;SDS011;11516;51.612;7.510;2023-04-24T05:39:08;14.37;;;9.53;;
22697;SDS011;11516;51.612;7.510;2023-04-24T05:41:34;13.75;;;9.63;;
22697;SDS011;11516;51.612;7.510;2023-04-24T05:44:00;12.43;;;8.73;;
22697;SDS011;11516;51.612;7.510;2023-04-24T05:46:25;13.00;;;9.43;;
22697;SDS011;11516;51.612;7.510;2023-04-24T05:48:51;11.97;;;8.80;;
22697;SDS011;11516;51.612;7.510;2023-04-24T05:51:16;11.55;;;8.15;;
22697;SDS011;11516;51.612;7.510;2023-04-24T05:53:42;11.95;;;9.07;;
22697;SDS011;11516;51.612;7.510;2023-04-24T05:56:07;12.75;;;9.10;;
22697;SDS011;11516;51.612;7.510;2023-04-24T05:58:33;11.97;;;8.37;;
22697;SDS011;11516;51.612;7.510;2023-04-24T06:00:58;10.10;;;8.10;;
22697;SDS011;11516;51.612;7.510;2023-04-24T06:03:26;10.57;;;7.80;;
22697;SDS011;11516;51.612;7.510;2023-04-24T06:05:52;10.93;;;7.68;;
22697;SDS011;11516;51.612;7.510;2023-04-24T06:08:18;10.68;;;7.88;;
22697;SDS011;11516;51.612;7.510;2023-04-24T06:10:44;9.43;;;7.07;;
22697;SDS011;11516;51.612;7.510;2023-04-24T06:13:10;8.60;;;5.97;;
22697;SDS011;11516;51.612;7.510;2023-04-24T06:15:36;8.30;;;7.15;;
22697;SDS011;11516;51.612;7.510;2023-04-24T06:18:01;9.60;;;7.30;;
22697;SDS011;11516;51.612;7.510;2023-04-24T06:20:27;9.10;;;7.57;;
22697;SDS011;11516;51.612;7.510;2023-04-24T06:22:53;9.35;;;7.15;;
22697;SDS011;11516;51.612;7.510;2023-04-24T06:25:19;9.38;;;8.15;;
22697;SDS011;11516;51.612;7.510;2023-04-24T06:27:45;9.15;;;8.00;;
22697;SDS011;11516;51.612;7.510;2023-04-24T06:30:11;10.32;;;8.18;;
22697;SDS011;11516;51.612;7.510;2023-04-24T06:32:36;9.83;;;8.40;;
22697;SDS011;11516;51.612;7.510;2023-04-24T06:35:02;10.73;;;8.70;;
22697;SDS011;11516;51.612;7.510;2023-04-24T06:37:28;8.30;;;7.20;;
22697;SDS011;11516;51.612;7.510;2023-04-24T06:39:54;10.57;;;8.65;;
22697;SDS011;11516;51.612;7.510;2023-04-24T06:42:19;11.13;;;8.40;;
22697;SDS011;11516;51.612;7.510;2023-04-24T06:44:49;10.05;;;8.30;;
22697;SDS011;11516;51.612;7.510;2023-04-24T06:47:15;9.18;;;6.95;;
22697;SDS011;11516;51.612;7.510;2023-04-24T06:49:40;7.97;;;6.53;;
22697;SDS011;11516;51.612;7.510;2023-04-24T06:52:06;9.60;;;7.18;;
22697;SDS011;11516;51.612;7.510;2023-04-24T06:54:47;8.60;;;6.38;;
22697;SDS011;11516;51.612;7.510;2023-04-24T06:57:13;8.98;;;6.95;;
22697;SDS011;11516;51.612;7.510;2023-04-24T06:59:40;8.32;;;6.10;;
22697;SDS011;11516;51.612;7.510;2023-04-24T07:02:06;7.10;;;5.50;;
22697;SDS011;11516;51.612;7.510;2023-04-24T07:04:32;6.93;;;5.50;;
22697;SDS011;11516;51.612;7.510;2023-04-24T07:06:57;8.50;;;5.90;;
22697;SDS011;11516;51.612;7.510;2023-04-24T07:09:23;6.57;;;5.10;;
22697;SDS011;11516;51.612;7.510;2023-04-24T07:11:50;7.28;;;5.60;;
22697;SDS011;11516;51.612;7.510;2023-04-24T07:14:16;7.15;;;5.00;;
22697;SDS011;11516;51.612;7.510;2023-04-24T07:16:42;6.60;;;5.25;;
22697;SDS011;11516;51.612;7.510;2023-04-24T07:19:08;6.15;;;4.65;;
22697;SDS011;11516;51.612;7.510;2023-04-24T07:21:34;6.67;;;4.70;;
22697;SDS011;11516;51.612;7.510;2023-04-24T07:24:00;5.95;;;4.53;;
22697;SDS011;11516;51.612;7.510;2023-04-24T07:26:26;5.28;;;4.53;;
22697;SDS011;11516;51.612;7.510;2023-04-24T07:28:53;5.57;;;4.87;;
22697;SDS011;11516;51.612;7.510;2023-04-24T07:31:19;5.20;;;4.70;;
22697;SDS011;11516;51.612;7.510;2023-04-24T07:33:45;4.90;;;4.40;;
22697;SDS011;11516;51.612;7.510;2023-04-24T07:36:11;4.40;;;4.00;;
22697;SDS011;11516;51.612;7.510;2023-04-24T07:38:41;4.40;;;4.00;;
22697;SDS011;11516;51.612;7.510;2023-04-24T07:41:07;4.97;;;4.47;;
22697;SDS011;11516;51.612;7.510;2023-04-24T07:43:32;4.82;;;4.32;;
22697;SDS011;11516;51.612;7.510;2023-04-24T07:45:58;5.07;;;4.30;;
22697;SDS011;11516;51.612;7.510;2023-04-24T07:48:24;3.72;;;3.42;;
22697;SDS011;11516;51.612;7.510;2023-04-24T07:50:51;4.10;;;3.70;;
22697;SDS011;11516;51.612;7.510;2023-04-24T07:53:17;4.72;;;3.83;;
22697;SDS011;11516;51.612;7.510;2023-04-24T07:55:42;4.20;;;3.78;;
22697;SDS011;11516;51.612;7.510;2023-04-24T07:58:08;3.35;;;2.58;;
22697;SDS011;11516;51.612;7.510;2023-04-24T08:00:33;3.50;;;2.67;;
22697;SDS011;11516;51.612;7.510;2023-04-24T08:02:59;2.60;;;2.30;;
22697;SDS011;11516;51.612;7.510;2023-04-24T08:05:25;3.67;;;2.20;;
22697;SDS011;11516;51.612;7.510;2023-04-24T08:07:52;3.28;;;2.40;;
22697;SDS011;11516;51.612;7.510;2023-04-24T08:10:17;3.75;;;2.40;;
22697;SDS011;11516;51.612;7.510;2023-04-24T08:12:43;3.10;;;2.35;;
22697;SDS011;11516;51.612;7.510;2023-04-24T08:15:09;2.40;;;2.20;;
22697;SDS011;11516;51.612;7.510;2023-04-24T08:17:34;2.90;;;2.53;;
22697;SDS011;11516;51.612;7.510;2023-04-24T08:20:00;2.83;;;2.35;;
22697;SDS011;11516;51.612;7.510;2023-04-24T08:22:27;3.67;;;2.78;;
22697;SDS011;11516;51.612;7.510;2023-04-24T08:24:53;3.92;;;2.50;;
22697;SDS011;11516;51.612;7.510;2023-04-24T08:27:19;2.53;;;2.10;;
22697;SDS011;11516;51.612;7.510;2023-04-24T08:29:45;2.33;;;2.13;;
22697;SDS011;11516;51.612;7.510;2023-04-24T08:32:10;2.47;;;2.27;;
22697;SDS011;11516;51.612;7.510;2023-04-24T08:34:36;2.08;;;1.80;;
22697;SDS011;11516;51.612;7.510;2023-04-24T08:37:02;1.50;;;1.10;;
22697;SDS011;11516;51.612;7.510;2023-04-24T08:39:28;1.23;;;1.00;;
22697;SDS011;11516;51.612;7.510;2023-04-24T08:41:54;1.60;;;1.20;;
22697;SDS011;11516;51.612;7.510;2023-04-24T08:44:20;0.82;;;0.70;;
22697;SDS011;11516;51.612;7.510;2023-04-24T08:46:47;1.33;;;0.98;;
22697;SDS011;11516;51.612;7.510;2023-04-24T08:49:14;3.60;;;0.73;;
22697;SDS011;11516;51.612;7.510;2023-04-24T08:51:42;1.80;;;1.10;;
22697;SDS011;11516;51.612;7.510;2023-04-24T08:54:10;1.15;;;0.90;;
22697;SDS011;11516;51.612;7.510;2023-04-24T08:56:37;0.90;;;0.90;;
22697;SDS011;11516;51.612;7.510;2023-04-24T08:59:05;1.15;;;1.10;;
22697;SDS011;11516;51.612;7.510;2023-04-24T09:01:32;5.82;;;3.97;;
22697;SDS011;11516;51.612;7.510;2023-04-24T09:04:02;1.25;;;0.98;;
22697;SDS011;11516;51.612;7.510;2023-04-24T09:06:28;0.80;;;0.80;;
22697;SDS011;11516;51.612;7.510;2023-04-24T09:08:57;0.90;;;0.90;;
22697;SDS011;11516;51.612;7.510;2023-04-24T09:11:25;1.20;;;0.95;;
22697;SDS011;11516;51.612;7.510;2023-04-24T09:13:53;1.10;;;1.10;;
22697;SDS011;11516;51.612;7.510;2023-04-24T09:16:19;1.20;;;1.00;;
22697;SDS011;11516;51.612;7.510;2023-04-24T09:18:45;3.90;;;3.20;;
22697;SDS011;11516;51.612;7.510;2023-04-24T09:21:11;2.20;;;1.52;;
22697;SDS011;11516;51.612;7.510;2023-04-24T09:23:36;1.70;;;1.30;;
22697;SDS011;11516;51.612;7.510;2023-04-24T09:26:03;2.78;;;2.55;;
22697;SDS011;11516;51.612;7.510;2023-04-24T09:28:32;7.97;;;7.00;;
22697;SDS011;11516;51.612;7.510;2023-04-24T09:31:01;3.70;;;3.38;;
22697;SDS011;11516;51.612;7.510;2023-04-24T09:33:28;2.15;;;1.60;;
22697;SDS011;11516;51.612;7.510;2023-04-24T09:35:54;6.43;;;4.43;;
22697;SDS011;11516;51.612;7.510;2023-04-24T09:38:19;3.88;;;2.40;;
22697;SDS011;11516;51.612;7.510;2023-04-24T09:40:55;2.90;;;2.50;;
22697;SDS011;11516;51.612;7.510;2023-04-24T09:43:23;2.43;;;2.23;;
22697;SDS011;11516;51.612;7.510;2023-04-24T09:45:51;2.85;;;2.60;;
22697;SDS011;11516;51.612;7.510;2023-04-24T09:48:31;4.38;;;3.97;;
22697;SDS011;11516;51.612;7.510;2023-04-24T09:50:58;9.38;;;7.90;;
22697;SDS011;11516;51.612;7.510;2023-04-24T09:53:24;6.80;;;4.25;;
22697;SDS011;11516;51.612;7.510;2023-04-24T09:55:50;0.55;;;0.30;;
22697;SDS011;11516;51.612;7.510;2023-04-24T09:58:18;0.20;;;0.20;;
22697;SDS011;11516;51.612;7.510;2023-04-24T10:00:49;0.65;;;0.65;;
22697;SDS011;11516;51.612;7.510;2023-04-24T10:03:17;0.28;;;0.28;;
22697;SDS011;11516;51.612;7.510;2023-04-24T10:05:44;0.30;;;0.30;;
22697;SDS011;11516;51.612;7.510;2023-04-24T10:08:11;0.30;;;0.30;;
22697;SDS011;11516;51.612;7.510;2023-04-24T10:10:39;0.30;;;0.13;;
22697;SDS011;11516;51.612;7.510;2023-04-24T10:13:06;0.23;;;0.23;;
22697;SDS011;11516;51.612;7.510;2023-04-24T10:15:34;0.50;;;0.50;;
22697;SDS011;11516;51.612;7.510;2023-04-24T10:18:00;0.08;;;0.08;;
22697;SDS011;11516;51.612;7.510;2023-04-24T10:20:27;0.15;;;0.15;;
22697;SDS011;11516;51.612;7.510;2023-04-24T10:22:54;0.20;;;0.20;;
22697;SDS011;11516;51.612;7.510;2023-04-24T10:25:21;0.40;;;0.30;;
22697;SDS011;11516;51.612;7.510;2023-04-24T10:27:52;0.60;;;0.60;;
22697;SDS011;11516;51.612;7.510;2023-04-24T10:30:19;0.70;;;0.40;;
22697;SDS011;11516;51.612;7.510;2023-04-24T10:35:09;0.60;;;0.60;;
22697;SDS011;11516;51.612;7.510;2023-04-24T10:37:38;0.38;;;0.38;;
22697;SDS011;11516;51.612;7.510;2023-04-24T10:40:09;0.30;;;0.20;;
22697;SDS011;11516;51.612;7.510;2023-04-24T10:42:39;0.90;;;0.90;;
22697;SDS011;11516;51.612;7.510;2023-04-24T10:45:13;0.40;;;0.40;;
22697;SDS011;11516;51.612;7.510;2023-04-24T10:47:42;2.00;;;0.55;;
22697;SDS011;11516;51.612;7.510;2023-04-24T10:50:15;0.43;;;0.43;;
22697;SDS011;11516;51.612;7.510;2023-04-24T10:52:44;0.40;;;0.40;;
22697;SDS011;11516;51.612;7.510;2023-04-24T10:55:12;0.10;;;0.10;;
22697;SDS011;11516;51.612;7.510;2023-04-24T10:57:38;0.13;;;0.13;;
22697;SDS011;11516;51.612;7.510;2023-04-24T11:00:20;0.75;;;0.65;;
22697;SDS011;11516;51.612;7.510;2023-04-24T11:02:47;0.20;;;0.20;;
22697;SDS011;11516;51.612;7.510;2023-04-24T11:05:15;1.10;;;0.70;;
22697;SDS011;11516;51.612;7.510;2023-04-24T11:10:43;0.70;;;0.70;;
22697;SDS011;11516;51.612;7.510;2023-04-24T11:13:22;0.17;;;0.17;;
22697;SDS011;11516;51.612;7.510;2023-04-24T11:16:31;1.60;;;0.50;;
22697;SDS011;11516;51.612;7.510;2023-04-24T11:18:39;0.17;;;0.17;;
22697;SDS011;11516;51.612;7.510;2023-04-24T11:21:15;0.30;;;0.30;;
22697;SDS011;11516;51.612;7.510;2023-04-24T11:23:42;0.30;;;0.30;;
22697;SDS011;11516;51.612;7.510;2023-04-24T11:26:25;2.72;;;0.90;;
22697;SDS011;11516;51.612;7.510;2023-04-24T11:29:05;0.60;;;0.40;;
22697;SDS011;11516;51.612;7.510;2023-04-24T11:31:36;1.90;;;1.70;;
22697;SDS011;11516;51.612;7.510;2023-04-24T11:34:11;0.50;;;0.50;;
22697;SDS011;11516;51.612;7.510;2023-04-24T11:36:39;1.40;;;0.95;;
22697;SDS011;11516;51.612;7.510;2023-04-24T11:39:07;1.20;;;0.57;;
22697;SDS011;11516;51.612;7.510;2023-04-24T11:41:33;1.03;;;0.93;;
22697;SDS011;11516;51.612;7.510;2023-04-24T11:44:00;0.80;;;0.80;;
22697;SDS011;11516;51.612;7.510;2023-04-24T11:46:27;2.00;;;0.73;;
22697;SDS011;11516;51.612;7.510;2023-04-24T11:48:53;1.33;;;1.08;;
22697;SDS011;11516;51.612;7.510;2023-04-24T11:51:19;0.70;;;0.50;;
22697;SDS011;11516;51.612;7.510;2023-04-24T11:53:44;0.95;;;0.80;;
22697;SDS011;11516;51.612;7.510;2023-04-24T11:56:10;7.80;;;1.93;;
22697;SDS011;11516;51.612;7.510;2023-04-24T11:58:36;0.60;;;0.60;;
22697;SDS011;11516;51.612;7.510;2023-04-24T12:01:05;0.60;;;0.50;;
22697;SDS011;11516;51.612;7.510;2023-04-24T12:03:30;2.47;;;0.80;;
22697;SDS011;11516;51.612;7.510;2023-04-24T12:06:06;0.50;;;0.50;;
22697;SDS011;11516;51.612;7.510;2023-04-24T12:08:35;2.00;;;1.67;;
22697;SDS011;11516;51.612;7.510;2023-04-24T12:11:02;2.35;;;1.35;;
22697;SDS011;11516;51.612;7.510;2023-04-24T12:13:28;0.40;;;0.40;;
22697;SDS011;11516;51.612;7.510;2023-04-24T12:15:54;4.60;;;0.40;;
22697;SDS011;11516;51.612;7.510;2023-04-24T12:18:24;0.73;;;0.73;;
22697;SDS011;11516;51.612;7.510;2023-04-24T12:20:50;0.60;;;0.60;;
22697;SDS011;11516;51.612;7.510;2023-04-24T12:23:16;0.50;;;0.50;;
22697;SDS011;11516;51.612;7.510;2023-04-24T12:25:59;0.60;;;0.60;;
22697;SDS011;11516;51.612;7.510;2023-04-24T12:28:34;0.40;;;0.40;;
22697;SDS011;11516;51.612;7.510;2023-04-24T12:31:03;1.23;;;1.23;;
22697;SDS011;11516;51.612;7.510;2023-04-24T12:33:32;0.65;;;0.65;;
22697;SDS011;11516;51.612;7.510;2023-04-24T12:35:59;3.78;;;1.20;;
22697;SDS011;11516;51.612;7.510;2023-04-24T12:38:26;1.90;;;1.20;;
22697;SDS011;11516;51.612;7.510;2023-04-24T12:41:04;2.58;;;1.13;;
22697;SDS011;11516;51.612;7.510;2023-04-24T12:43:31;2.50;;;0.57;;
22697;SDS011;11516;51.612;7.510;2023-04-24T12:45:56;0.70;;;0.70;;
22697;SDS011;11516;51.612;7.510;2023-04-24T12:48:22;1.60;;;1.13;;
22697;SDS011;11516;51.612;7.510;2023-04-24T12:50:48;0.17;;;0.17;;
22697;SDS011;11516;51.612;7.510;2023-04-24T12:53:14;0.45;;;0.45;;
22697;SDS011;11516;51.612;7.510;2023-04-24T12:55:40;0.90;;;0.80;;
22697;SDS011;11516;51.612;7.510;2023-04-24T12:58:06;0.30;;;0.30;;
22697;SDS011;11516;51.612;7.510;2023-04-24T13:00:32;3.70;;;1.20;;
22697;SDS011;11516;51.612;7.510;2023-04-24T13:02:57;0.25;;;0.25;;
22697;SDS011;11516;51.612;7.510;2023-04-24T13:05:23;0.88;;;0.40;;
22697;SDS011;11516;51.612;7.510;2023-04-24T13:07:48;0.70;;;0.70;;
22697;SDS011;11516;51.612;7.510;2023-04-24T13:10:14;0.73;;;0.63;;
22697;SDS011;11516;51.612;7.510;2023-04-24T13:12:40;0.40;;;0.15;;
22697;SDS011;11516;51.612;7.510;2023-04-24T13:15:06;0.60;;;0.60;;
22697;SDS011;11516;51.612;7.510;2023-04-24T13:17:32;1.50;;;0.40;;
22697;SDS011;11516;51.612;7.510;2023-04-24T13:19:58;1.90;;;0.52;;
22697;SDS011;11516;51.612;7.510;2023-04-24T13:22:23;0.10;;;0.10;;
22697;SDS011;11516;51.612;7.510;2023-04-24T13:24:49;0.10;;;0.10;;
22697;SDS011;11516;51.612;7.510;2023-04-24T13:27:15;0.30;;;0.30;;
22697;SDS011;11516;51.612;7.510;2023-04-24T13:29:41;0.45;;;0.45;;
22697;SDS011;11516;51.612;7.510;2023-04-24T13:32:07;0.30;;;0.23;;
22697;SDS011;11516;51.612;7.510;2023-04-24T13:34:33;1.02;;;0.57;;
22697;SDS011;11516;51.612;7.510;2023-04-24T13:37:02;0.73;;;0.70;;
22697;SDS011;11516;51.612;7.510;2023-04-24T13:39:32;3.50;;;1.30;;
22697;SDS011;11516;51.612;7.510;2023-04-24T13:41:58;0.20;;;0.20;;
22697;SDS011;11516;51.612;7.510;2023-04-24T13:44:24;0.10;;;0.10;;
22697;SDS011;11516;51.612;7.510;2023-04-24T13:46:51;0.00;;;0.00;;
22697;SDS011;11516;51.612;7.510;2023-04-24T13:49:19;0.10;;;0.10;;
22697;SDS011;11516;51.612;7.510;2023-04-24T13:51:45;0.55;;;0.30;;
22697;SDS011;11516;51.612;7.510;2023-04-24T13:54:11;2.00;;;0.30;;
22697;SDS011;11516;51.612;7.510;2023-04-24T13:56:36;0.50;;;0.50;;
22697;SDS011;11516;51.612;7.510;2023-04-24T13:59:02;0.10;;;0.10;;
22697;SDS011;11516;51.612;7.510;2023-04-24T14:01:27;0.40;;;0.40;;
22697;SDS011;11516;51.612;7.510;2023-04-24T14:03:53;0.30;;;0.30;;
22697;SDS011;11516;51.612;7.510;2023-04-24T14:06:20;2.13;;;0.73;;
22697;SDS011;11516;51.612;7.510;2023-04-24T14:08:46;0.90;;;0.60;;
22697;SDS011;11516;51.612;7.510;2023-04-24T14:11:12;1.50;;;0.75;;
22697;SDS011;11516;51.612;7.510;2023-04-24T14:13:38;0.20;;;0.20;;
22697;SDS011;11516;51.612;7.510;2023-04-24T14:16:06;0.60;;;0.50;;
22697;SDS011;11516;51.612;7.510;2023-04-24T14:18:31;0.40;;;0.40;;
22697;SDS011;11516;51.612;7.510;2023-04-24T14:20:57;2.07;;;1.30;;
22697;SDS011;11516;51.612;7.510;2023-04-24T14:23:23;0.30;;;0.30;;
22697;SDS011;11516;51.612;7.510;2023-04-24T14:25:48;1.00;;;0.70;;
22697;SDS011;11516;51.612;7.510;2023-04-24T14:28:17;0.17;;;0.17;;
22697;SDS011;11516;51.612;7.510;2023-04-24T14:30:43;0.30;;;0.30;;
22697;SDS011;11516;51.612;7.510;2023-04-24T14:33:08;0.63;;;0.43;;
22697;SDS011;11516;51.612;7.510;2023-04-24T14:35:34;7.90;;;0.50;;
22697;SDS011;11516;51.612;7.510;2023-04-24T14:38:00;0.15;;;0.15;;
22697;SDS011;11516;51.612;7.510;2023-04-24T14:40:26;0.30;;;0.30;;
22697;SDS011;11516;51.612;7.510;2023-04-24T14:42:51;0.00;;;0.00;;
22697;SDS011;11516;51.612;7.510;2023-04-24T14:45:17;1.10;;;1.10;;
22697;SDS011;11516;51.612;7.510;2023-04-24T14:47:44;0.60;;;0.60;;